Pottersville, Indiana
Current Conditions -  °F | °C
As of 2:53 PM on Friday 19 Dec 2014 (Local Time) from KBMG Reporting Station
Overcast Overcast  
Wind Chill: 28°   Ceiling: 2500
Heat Index: 33°   Visibility: 10mi
Dew Point: 23°   Wind: 6mph
Humidity: 66%   Direction: 40°NE
Pressure: 30.25"   Gusts: NA
Location:  39.3008°N, 86.8112°W
Report Text: KBMG 191953Z 04005KT 10SM OVC025 01/M05 A3025 RMK AO2 SLP252 T00061050
Loading
Personal Weather Stations






























Interactive Weather Map New forecast layout! Learn more

10-Day Weather Forecast

Advertisements
Track Severe Weather on mobile